createdAt,value
2018-02-09T00:00:50.337Z,-5.30
2018-02-09T00:03:18.621Z,-5.20
2018-02-09T00:05:46.984Z,-5.30
2018-02-09T00:08:15.257Z,-5.50
2018-02-09T00:10:43.555Z,-5.40
2018-02-09T00:13:11.891Z,-5.30
2018-02-09T00:15:40.161Z,-5.40
2018-02-09T00:18:08.533Z,-5.50
2018-02-09T00:20:36.854Z,-5.40
2018-02-09T00:23:05.147Z,-5.50
2018-02-09T00:25:33.512Z,-5.50
2018-02-09T00:28:01.786Z,-5.50
2018-02-09T00:30:30.114Z,-5.60
2018-02-09T00:32:58.474Z,-5.60
2018-02-09T00:35:26.767Z,-5.60
2018-02-09T00:37:55.032Z,-5.60
2018-02-09T00:40:23.348Z,-5.80
2018-02-09T00:42:52.376Z,-5.70
2018-02-09T00:45:20.745Z,-5.70
2018-02-09T00:47:49.059Z,-5.80
2018-02-09T00:50:17.419Z,-5.70
2018-02-09T00:52:45.831Z,-5.80
2018-02-09T00:55:14.179Z,-5.80
2018-02-09T00:57:42.545Z,-5.70
2018-02-09T01:00:11.678Z,-5.70
2018-02-09T01:02:39.933Z,-5.80
2018-02-09T01:05:08.204Z,-5.80
2018-02-09T01:07:36.598Z,-5.90
2018-02-09T01:10:04.926Z,-5.90
2018-02-09T01:12:33.199Z,-5.90
2018-02-09T01:15:02.340Z,-5.90
2018-02-09T01:17:30.651Z,-6.00
2018-02-09T01:19:58.977Z,-5.90
2018-02-09T01:22:27.257Z,-6.00
2018-02-09T01:24:55.544Z,-6.10
2018-02-09T01:27:23.916Z,-6.00
2018-02-09T01:29:53.132Z,-6.10
2018-02-09T01:32:21.495Z,-6.00
2018-02-09T01:34:49.791Z,-6.00
2018-02-09T01:37:18.090Z,-6.10
2018-02-09T01:39:46.420Z,-6.10
2018-02-09T01:42:14.733Z,-6.00
2018-02-09T01:44:43.144Z,-6.10
2018-02-09T01:49:52.526Z,-6.20
2018-02-09T01:52:20.829Z,-6.10
2018-02-09T01:54:49.098Z,-6.10
2018-02-09T01:57:17.522Z,-6.10
2018-02-09T01:59:45.784Z,-6.10
2018-02-09T02:02:14.054Z,-6.10
2018-02-09T02:04:42.409Z,-6.00
2018-02-09T02:07:10.683Z,-6.00
2018-02-09T02:09:38.980Z,-6.00
2018-02-09T02:12:07.280Z,-6.10
2018-02-09T02:14:35.609Z,-6.10
2018-02-09T02:17:03.887Z,-6.10
2018-02-09T02:19:32.193Z,-6.10
2018-02-09T02:22:00.823Z,-6.00
2018-02-09T02:24:29.097Z,-6.00
2018-02-09T02:26:57.437Z,-5.90
2018-02-09T02:29:25.727Z,-5.80
2018-02-09T02:31:54.912Z,-5.60
2018-02-09T02:34:23.187Z,-5.60
2018-02-09T02:36:51.537Z,-5.60
2018-02-09T02:39:19.917Z,-5.60
2018-02-09T02:41:48.281Z,-5.60
2018-02-09T02:44:16.546Z,-5.50
2018-02-09T02:46:44.871Z,-5.50
2018-02-09T02:49:13.146Z,-5.40
2018-02-09T02:51:41.433Z,-5.40
2018-02-09T02:54:10.574Z,-5.30
2018-02-09T02:56:38.849Z,-5.30
2018-02-09T02:59:07.188Z,-5.30
2018-02-09T03:01:36.259Z,-5.20
2018-02-09T03:04:04.540Z,-5.20
2018-02-09T03:06:32.810Z,-5.20
2018-02-09T03:09:01.194Z,-5.20
2018-02-09T03:11:29.566Z,-5.20
2018-02-09T03:13:57.867Z,-5.20
2018-02-09T03:16:26.982Z,-5.00
2018-02-09T03:18:55.260Z,-5.00
2018-02-09T03:21:23.570Z,-5.00
2018-02-09T03:23:51.882Z,-4.90
2018-02-09T03:26:20.161Z,-5.00
2018-02-09T03:28:48.520Z,-5.00
2018-02-09T03:31:16.821Z,-5.00
2018-02-09T03:33:45.855Z,-5.00
2018-02-09T03:36:14.202Z,-5.10
2018-02-09T03:38:43.240Z,-5.10
2018-02-09T03:41:11.582Z,-5.10
2018-02-09T03:43:39.866Z,-5.10
2018-02-09T03:46:08.237Z,-5.10
2018-02-09T03:48:36.583Z,-5.20
2018-02-09T03:51:04.987Z,-5.10
2018-02-09T03:53:34.072Z,-5.10
2018-02-09T03:56:02.433Z,-5.10
2018-02-09T03:58:30.713Z,-5.00
2018-02-09T04:00:59.065Z,-5.00
2018-02-09T04:03:27.364Z,-5.00
2018-02-09T04:05:55.679Z,-5.00
2018-02-09T04:08:24.811Z,-5.00
2018-02-09T04:10:53.082Z,-5.00
2018-02-09T04:13:21.425Z,-5.10
2018-02-09T04:15:49.772Z,-5.00
2018-02-09T04:18:18.073Z,-5.00
2018-02-09T04:20:47.144Z,-4.90
2018-02-09T04:23:15.460Z,-5.00
2018-02-09T04:25:43.737Z,-4.90
2018-02-09T04:28:12.095Z,-4.70
2018-02-09T04:30:41.136Z,-4.90
2018-02-09T04:33:09.484Z,-4.90
2018-02-09T04:35:37.758Z,-4.80
2018-02-09T04:38:06.101Z,-4.80
2018-02-09T04:40:34.447Z,-4.90
2018-02-09T04:43:03.486Z,-4.80
2018-02-09T04:45:31.895Z,-4.80
2018-02-09T04:48:00.165Z,-4.80
2018-02-09T04:50:28.472Z,-4.80
2018-02-09T04:52:56.796Z,-4.80
2018-02-09T04:55:25.906Z,-4.70
2018-02-09T04:57:55.037Z,-4.60
2018-02-09T05:00:23.348Z,-4.70
2018-02-09T05:02:51.708Z,-4.50
2018-02-09T05:05:19.987Z,-4.60
2018-02-09T05:07:48.303Z,-4.60
2018-02-09T05:10:17.348Z,-4.60
2018-02-09T05:12:45.684Z,-4.70
2018-02-09T05:15:14.732Z,-4.50
2018-02-09T05:17:43.076Z,-4.50
2018-02-09T05:20:11.495Z,-4.50
2018-02-09T05:22:39.764Z,-4.70
2018-02-09T05:25:08.043Z,-4.80
2018-02-09T05:27:36.400Z,-4.70
2018-02-09T05:30:04.679Z,-4.70
2018-02-09T05:32:33.014Z,-4.50
2018-02-09T05:35:01.307Z,-4.50
2018-02-09T05:37:29.680Z,-4.60
2018-02-09T05:39:57.959Z,-4.50
2018-02-09T05:42:26.341Z,-4.40
2018-02-09T05:44:54.650Z,-4.40
2018-02-09T05:47:23.696Z,-4.20
2018-02-09T05:49:52.824Z,-4.40
2018-02-09T05:52:21.183Z,-4.40
2018-02-09T05:54:49.495Z,-4.60
2018-02-09T05:57:17.773Z,-4.60
2018-02-09T05:59:46.136Z,-4.50
2018-02-09T06:02:14.453Z,-4.50
2018-02-09T06:04:42.710Z,-4.40
2018-02-09T06:07:11.005Z,-4.40
2018-02-09T06:09:39.289Z,-4.40
2018-02-09T06:12:07.654Z,-4.40
2018-02-09T06:14:36.018Z,-4.50
2018-02-09T06:17:05.079Z,-4.30
2018-02-09T06:19:33.361Z,-4.30
2018-02-09T06:22:01.693Z,-4.40
2018-02-09T06:24:30.010Z,-4.30
2018-02-09T06:26:58.287Z,-4.30
2018-02-09T06:29:26.684Z,-4.30
2018-02-09T06:31:54.982Z,-4.20
2018-02-09T06:34:23.237Z,-4.30
2018-02-09T06:36:51.535Z,-4.20
2018-02-09T06:39:19.809Z,-4.30
2018-02-09T06:41:48.295Z,-4.30
2018-02-09T06:44:17.320Z,-4.20
2018-02-09T06:46:46.435Z,-4.30
2018-02-09T06:49:14.726Z,-4.30
2018-02-09T06:51:55.497Z,-4.30
2018-02-09T06:54:23.757Z,-4.20
2018-02-09T06:56:52.172Z,-4.10
2018-02-09T06:59:20.485Z,-4.20
2018-02-09T07:01:49.215Z,-4.20
2018-02-09T07:04:17.494Z,-4.00
2018-02-09T07:06:45.813Z,-3.90
2018-02-09T07:09:14.180Z,-3.90
2018-02-09T07:11:42.461Z,-3.90
2018-02-09T07:14:10.734Z,-3.90
2018-02-09T07:16:39.092Z,-3.90
2018-02-09T07:19:07.493Z,-3.90
2018-02-09T07:21:35.869Z,-3.80
2018-02-09T07:24:05.011Z,-3.70
2018-02-09T07:26:33.344Z,-3.70
2018-02-09T07:29:01.605Z,-3.80
2018-02-09T07:31:30.004Z,-3.80
2018-02-09T07:33:58.290Z,-3.80
2018-02-09T07:36:26.662Z,-3.80
2018-02-09T07:38:54.937Z,-3.70
2018-02-09T07:41:23.286Z,-3.50
2018-02-09T07:43:51.592Z,-3.60
2018-02-09T07:46:19.890Z,-3.60
2018-02-09T07:48:48.952Z,-3.60
2018-02-09T07:51:17.322Z,-3.60
2018-02-09T07:53:45.603Z,-3.60
2018-02-09T07:56:13.960Z,-3.60
2018-02-09T07:58:42.299Z,-3.60
2018-02-09T08:01:11.428Z,-3.30
2018-02-09T08:03:39.726Z,-3.40
2018-02-09T08:06:08.046Z,-3.30
2018-02-09T08:08:37.145Z,-3.40
2018-02-09T08:11:06.224Z,-3.30
2018-02-09T08:13:34.606Z,-3.30
2018-02-09T08:16:02.894Z,-3.30
2018-02-09T08:18:31.969Z,-3.20
2018-02-09T08:21:00.299Z,-3.30
2018-02-09T08:23:28.601Z,-3.30
2018-02-09T08:25:56.885Z,-3.20
2018-02-09T08:28:25.313Z,-3.20
2018-02-09T08:30:53.596Z,-3.10
2018-02-09T08:33:21.980Z,-3.10
2018-02-09T08:35:50.284Z,-3.00
2018-02-09T08:38:18.551Z,-2.90
2018-02-09T08:40:46.910Z,-2.80
2018-02-09T08:43:15.198Z,-2.80
2018-02-09T08:45:43.482Z,-2.70
2018-02-09T08:48:11.887Z,-2.80
2018-02-09T08:50:40.161Z,-2.70
2018-02-09T08:53:08.582Z,-2.70
2018-02-09T08:55:37.632Z,-2.90
2018-02-09T08:58:05.992Z,-2.80
2018-02-09T09:00:34.274Z,-2.80
2018-02-09T09:03:02.578Z,-2.80
2018-02-09T09:05:31.039Z,-2.80
2018-02-09T09:07:59.359Z,-2.70
2018-02-09T09:10:28.397Z,-2.40
2018-02-09T09:12:56.710Z,-2.50
2018-02-09T09:15:24.980Z,-2.50
2018-02-09T09:17:53.322Z,-2.30
2018-02-09T09:20:21.592Z,-2.30
2018-02-09T09:22:50.118Z,-2.20
2018-02-09T09:25:18.457Z,-2.20
2018-02-09T09:27:46.771Z,-2.20
2018-02-09T09:30:15.114Z,-2.20
2018-02-09T09:32:43.402Z,-2.20
2018-02-09T09:35:11.700Z,-2.10
2018-02-09T09:37:40.017Z,-1.90
2018-02-09T09:40:08.378Z,-1.80
2018-02-09T09:42:36.824Z,-1.60
2018-02-09T09:45:05.203Z,-1.60
2018-02-09T09:47:33.546Z,-1.70
2018-02-09T09:50:01.974Z,-1.80
2018-02-09T09:52:30.295Z,-1.70
2018-02-09T09:54:58.613Z,-1.70
2018-02-09T09:57:26.901Z,-1.60
2018-02-09T09:59:56.294Z,-1.60
2018-02-09T10:02:36.532Z,-1.40
2018-02-09T10:05:04.951Z,-1.20
2018-02-09T10:07:33.276Z,-1.10
2018-02-09T10:10:01.643Z,-1.20
2018-02-09T10:12:30.025Z,-1.30
2018-02-09T10:14:58.337Z,-1.40
2018-02-09T10:17:27.306Z,-1.40
2018-02-09T10:19:55.679Z,-1.50
2018-02-09T10:22:24.809Z,-1.00
2018-02-09T10:24:53.137Z,-1.00
2018-02-09T10:27:22.305Z,-0.80
2018-02-09T10:29:50.576Z,-0.80
2018-02-09T10:32:18.927Z,-0.40
2018-02-09T10:34:47.246Z,-0.60
2018-02-09T10:37:16.339Z,-0.40
2018-02-09T10:39:45.386Z,-0.40
2018-02-09T10:42:13.662Z,-0.40
2018-02-09T10:44:42.025Z,-0.50
2018-02-09T10:47:10.301Z,-0.40
2018-02-09T10:49:38.700Z,-0.40
2018-02-09T10:52:07.092Z,-0.40
2018-02-09T10:54:35.468Z,-0.50
2018-02-09T10:57:03.746Z,-0.40
2018-02-09T10:59:32.052Z,-0.50
2018-02-09T11:02:00.374Z,-0.70
2018-02-09T11:04:28.691Z,-0.60
2018-02-09T11:06:57.100Z,-0.60
2018-02-09T11:09:31.218Z,-0.70
2018-02-09T11:12:02.224Z,-0.60
2018-02-09T11:14:30.508Z,-0.60
2018-02-09T11:16:58.880Z,-0.80
2018-02-09T11:19:27.163Z,-0.70
2018-02-09T11:21:55.551Z,-0.60
2018-02-09T11:24:24.614Z,-0.40
2018-02-09T11:26:52.915Z,-0.50
2018-02-09T11:29:21.309Z,-0.40
2018-02-09T11:31:49.566Z,-0.40
2018-02-09T11:34:17.853Z,-0.30
2018-02-09T11:36:46.308Z,-0.20
2018-02-09T11:39:15.385Z,-0.10
2018-02-09T11:41:43.704Z,-0.10
2018-02-09T11:44:12.000Z,-0.10
2018-02-09T11:46:41.123Z,-0.10
2018-02-09T11:49:09.407Z,-0.10
2018-02-09T11:51:37.739Z,-0.20
2018-02-09T11:54:06.804Z,0.00
2018-02-09T11:56:35.144Z,-0.10
2018-02-09T11:59:03.658Z,0.00
2018-02-09T12:01:31.965Z,0.00
2018-02-09T12:04:00.342Z,0.00
2018-02-09T12:06:28.624Z,0.00
2018-02-09T12:08:57.746Z,-0.20
2018-02-09T12:11:26.040Z,-0.10
2018-02-09T12:13:54.474Z,0.10
2018-02-09T12:16:23.539Z,0.00
2018-02-09T12:18:51.798Z,0.00
2018-02-09T12:21:20.294Z,0.10
2018-02-09T12:23:48.728Z,0.20
2018-02-09T12:26:17.070Z,0.20
2018-02-09T12:28:58.070Z,0.10
2018-02-09T12:31:27.378Z,0.00
2018-02-09T12:33:56.705Z,0.20
2018-02-09T12:36:24.971Z,0.20
2018-02-09T12:41:26.983Z,0.20
2018-02-09T12:43:55.243Z,0.10
2018-02-09T12:46:23.576Z,0.00
2018-02-09T12:48:52.630Z,-0.10
2018-02-09T12:51:20.942Z,-0.10
2018-02-09T12:53:50.266Z,0.10
2018-02-09T12:56:18.541Z,0.10
2018-02-09T12:58:46.909Z,0.10
2018-02-09T13:01:16.051Z,0.10
2018-02-09T13:03:44.345Z,0.00
2018-02-09T13:06:12.628Z,0.10
2018-02-09T13:08:41.913Z,-0.10
2018-02-09T13:11:10.187Z,-0.20
2018-02-09T13:13:39.788Z,-0.20
2018-02-09T13:16:08.205Z,-0.20
2018-02-09T13:18:50.442Z,-0.10
2018-02-09T13:21:18.812Z,-0.10
2018-02-09T13:23:59.161Z,-0.10
2018-02-09T13:26:28.232Z,-0.20
2018-02-09T13:28:58.642Z,-0.30
2018-02-09T13:31:26.948Z,-0.30
2018-02-09T13:33:55.997Z,-0.20
2018-02-09T13:36:36.141Z,-0.20
2018-02-09T13:39:04.456Z,-0.10
2018-02-09T13:41:32.738Z,0.00
2018-02-09T13:44:01.023Z,-0.20
2018-02-09T13:46:29.352Z,-0.30
2018-02-09T13:48:58.502Z,-0.30
2018-02-09T13:51:27.630Z,-0.20
2018-02-09T13:53:57.557Z,-0.20
2018-02-09T13:56:25.987Z,-0.20
2018-02-09T13:58:54.313Z,-0.10
2018-02-09T14:01:22.594Z,-0.10
2018-02-09T14:03:50.889Z,0.10
2018-02-09T14:06:19.224Z,0.10
2018-02-09T14:08:49.328Z,-0.10
2018-02-09T14:11:18.405Z,0.00
2018-02-09T14:13:46.778Z,0.00
2018-02-09T14:16:15.062Z,0.10
2018-02-09T14:18:43.327Z,0.20
2018-02-09T14:21:11.665Z,0.10
2018-02-09T14:23:39.983Z,0.10
2018-02-09T14:26:08.249Z,0.00
2018-02-09T14:28:36.604Z,-0.10
2018-02-09T14:31:04.901Z,-0.10
2018-02-09T14:33:33.207Z,0.00
2018-02-09T14:36:01.526Z,-0.10
2018-02-09T14:38:29.795Z,0.00
2018-02-09T14:40:58.190Z,0.00
2018-02-09T14:43:26.565Z,0.10
2018-02-09T14:45:54.858Z,0.00
2018-02-09T14:48:23.169Z,0.10
2018-02-09T14:50:51.447Z,0.10
2018-02-09T14:53:19.805Z,0.20
2018-02-09T14:55:48.173Z,0.20
2018-02-09T14:58:17.251Z,0.00
2018-02-09T15:00:45.552Z,0.00
2018-02-09T15:03:13.851Z,0.10
2018-02-09T15:05:42.180Z,0.00
2018-02-09T15:08:10.438Z,0.00
2018-02-09T15:10:38.872Z,0.10
2018-02-09T15:13:08.008Z,0.30
2018-02-09T15:15:36.372Z,0.20
2018-02-09T15:18:05.405Z,0.20
2018-02-09T15:20:33.681Z,0.20
2018-02-09T15:23:02.033Z,0.10
2018-02-09T15:25:31.128Z,0.20
2018-02-09T15:28:00.263Z,0.10
2018-02-09T15:30:28.541Z,0.10
2018-02-09T15:32:56.858Z,0.10
2018-02-09T15:35:25.123Z,0.20
2018-02-09T15:37:53.495Z,0.10
2018-02-09T15:40:21.808Z,0.00
2018-02-09T15:42:50.100Z,0.10
2018-02-09T15:45:19.334Z,0.00
2018-02-09T15:47:47.716Z,-0.10
2018-02-09T15:50:16.088Z,-0.10
2018-02-09T15:52:44.501Z,-0.10
2018-02-09T15:55:14.352Z,0.00
2018-02-09T15:57:42.740Z,-0.10
2018-02-09T16:00:11.294Z,0.00
2018-02-09T16:02:40.549Z,-0.10
2018-02-09T16:05:08.866Z,-0.10
2018-02-09T16:07:37.148Z,-0.10
2018-02-09T16:10:05.533Z,-0.10
2018-02-09T16:12:33.801Z,-0.10
2018-02-09T16:15:02.073Z,-0.20
2018-02-09T16:17:30.384Z,-0.10
2018-02-09T16:19:58.658Z,-0.10
2018-02-09T16:22:27.073Z,-0.10
2018-02-09T16:24:55.350Z,0.00
2018-02-09T16:27:23.706Z,0.00
2018-02-09T16:29:51.962Z,0.00
2018-02-09T16:32:20.273Z,-0.10
2018-02-09T16:34:48.643Z,-0.10
2018-02-09T16:37:16.943Z,-0.10
2018-02-09T16:39:45.898Z,-0.10
2018-02-09T16:42:14.704Z,0.00
2018-02-09T16:44:43.130Z,0.00
2018-02-09T16:47:11.435Z,-0.10
2018-02-09T16:49:40.090Z,-0.10
2018-02-09T16:52:09.135Z,0.00
2018-02-09T16:54:37.431Z,0.00
2018-02-09T16:57:05.702Z,0.00
2018-02-09T16:59:34.050Z,0.00
2018-02-09T17:02:02.348Z,0.00
2018-02-09T17:04:30.672Z,0.00
2018-02-09T17:06:58.949Z,0.00
2018-02-09T17:09:27.225Z,-0.10
2018-02-09T17:11:55.611Z,-0.10
2018-02-09T17:14:23.891Z,-0.10
2018-02-09T17:16:52.195Z,-0.10
2018-02-09T17:19:20.525Z,-0.10
2018-02-09T17:21:49.567Z,-0.10
2018-02-09T17:24:17.838Z,0.00
2018-02-09T17:26:46.177Z,0.00
2018-02-09T17:29:15.230Z,0.00
2018-02-09T17:31:44.348Z,0.10
2018-02-09T17:34:13.424Z,0.00
2018-02-09T17:36:41.708Z,-0.10
2018-02-09T17:39:10.045Z,-0.10
2018-02-09T17:41:38.311Z,-0.20
2018-02-09T17:44:06.581Z,-0.10
2018-02-09T17:46:34.918Z,-0.10
2018-02-09T17:49:03.237Z,-0.10
2018-02-09T17:51:31.607Z,0.00
2018-02-09T17:54:00.674Z,0.00
2018-02-09T17:56:29.720Z,-0.10
2018-02-09T17:58:58.192Z,-0.10
2018-02-09T18:01:26.500Z,-0.10
2018-02-09T18:03:54.831Z,0.00
2018-02-09T18:06:23.972Z,0.00
2018-02-09T18:08:52.248Z,0.00
2018-02-09T18:11:20.603Z,-0.10
2018-02-09T18:13:48.878Z,0.00
2018-02-09T18:16:17.193Z,0.00
2018-02-09T18:18:45.470Z,0.00
2018-02-09T18:21:13.845Z,0.00
2018-02-09T18:23:43.655Z,0.00
2018-02-09T18:26:12.051Z,0.00
2018-02-09T18:28:41.227Z,0.00
2018-02-09T18:31:10.139Z,0.00
2018-02-09T18:33:38.499Z,0.10
2018-02-09T18:36:06.805Z,0.00
2018-02-09T18:38:35.838Z,0.00
2018-02-09T18:41:04.162Z,0.00
2018-02-09T18:43:34.368Z,0.00
2018-02-09T18:46:02.661Z,0.10
2018-02-09T18:48:31.028Z,0.10
2018-02-09T18:50:59.315Z,0.10
2018-02-09T18:53:27.651Z,0.00
2018-02-09T18:55:55.966Z,0.10
2018-02-09T18:58:24.234Z,0.10
2018-02-09T19:00:52.514Z,0.10
2018-02-09T19:03:20.866Z,0.10
2018-02-09T19:05:49.213Z,0.10
2018-02-09T19:08:17.532Z,0.00
2018-02-09T19:10:45.794Z,0.00
2018-02-09T19:13:14.420Z,0.00
2018-02-09T19:15:42.683Z,0.10
2018-02-09T19:18:11.007Z,0.10
2018-02-09T19:20:39.267Z,0.10
2018-02-09T19:23:08.621Z,0.20
2018-02-09T19:25:37.098Z,0.20
2018-02-09T19:28:05.527Z,0.20
2018-02-09T19:30:35.664Z,0.10
2018-02-09T19:33:04.728Z,0.10
2018-02-09T19:35:33.004Z,0.10
2018-02-09T19:38:02.108Z,0.10
2018-02-09T19:40:31.223Z,0.10
2018-02-09T19:42:59.507Z,0.10
2018-02-09T19:45:27.904Z,0.10
2018-02-09T19:47:56.238Z,0.10
2018-02-09T19:50:25.332Z,0.10
2018-02-09T19:52:54.369Z,0.10
2018-02-09T19:55:23.176Z,0.10
2018-02-09T19:57:52.542Z,0.10
2018-02-09T20:00:20.871Z,0.00
2018-02-09T20:02:49.143Z,0.10
2018-02-09T20:05:17.508Z,0.20
2018-02-09T20:07:45.963Z,0.10
2018-02-09T20:10:14.379Z,0.10
2018-02-09T20:12:42.700Z,0.10
2018-02-09T20:15:11.770Z,0.10
2018-02-09T20:17:40.034Z,0.10
2018-02-09T20:20:08.449Z,0.10
2018-02-09T20:22:37.481Z,0.10
2018-02-09T20:25:05.753Z,0.10
2018-02-09T20:27:34.095Z,0.10
2018-02-09T20:30:02.427Z,0.20
2018-02-09T20:32:30.708Z,0.20
2018-02-09T20:34:59.068Z,0.20
2018-02-09T20:37:29.021Z,0.20
2018-02-09T20:39:57.325Z,0.20
2018-02-09T20:42:26.026Z,0.20
2018-02-09T20:44:54.331Z,0.20
2018-02-09T20:47:22.660Z,0.20
2018-02-09T20:49:52.209Z,0.20
2018-02-09T20:52:20.651Z,0.20
2018-02-09T20:54:49.104Z,0.20
2018-02-09T20:57:17.773Z,0.20
2018-02-09T20:59:46.064Z,0.20
2018-02-09T21:02:15.257Z,0.20
2018-02-09T21:04:43.841Z,0.20
2018-02-09T21:07:12.799Z,0.20
2018-02-09T21:09:41.057Z,0.30
2018-02-09T21:12:09.430Z,0.20
2018-02-09T21:14:37.726Z,0.20
2018-02-09T21:17:06.040Z,0.20
2018-02-09T21:19:34.378Z,0.30
2018-02-09T21:22:02.722Z,0.30
2018-02-09T21:24:31.922Z,0.20
2018-02-09T21:27:01.095Z,0.20
2018-02-09T21:29:29.557Z,0.30
2018-02-09T21:31:57.785Z,0.20
2018-02-09T21:34:26.572Z,0.20
2018-02-09T21:36:54.984Z,0.30
2018-02-09T21:39:23.284Z,0.30
2018-02-09T21:41:51.722Z,0.20
2018-02-09T21:44:19.983Z,0.30
2018-02-09T21:46:48.334Z,0.30
2018-02-09T21:49:17.426Z,0.20
2018-02-09T21:51:45.975Z,0.30
2018-02-09T21:54:14.249Z,0.30
2018-02-09T21:56:42.601Z,0.30
2018-02-09T21:59:10.940Z,0.20
2018-02-09T22:01:39.200Z,0.20
2018-02-09T22:04:07.460Z,0.20
2018-02-09T22:06:35.823Z,0.10
2018-02-09T22:09:04.177Z,0.20
2018-02-09T22:11:32.516Z,0.20
2018-02-09T22:14:00.841Z,0.20
2018-02-09T22:16:29.158Z,0.20
2018-02-09T22:18:57.431Z,0.20
2018-02-09T22:21:26.512Z,0.20
2018-02-09T22:23:54.775Z,0.20
2018-02-09T22:26:23.145Z,0.20
2018-02-09T22:28:51.419Z,0.20
2018-02-09T22:31:19.715Z,0.30
2018-02-09T22:33:48.035Z,0.20
2018-02-09T22:36:16.325Z,0.10
2018-02-09T22:38:45.370Z,0.10
2018-02-09T22:41:13.696Z,0.20
2018-02-09T22:43:42.792Z,0.20
2018-02-09T22:46:11.212Z,0.20
2018-02-09T22:48:39.616Z,0.20
2018-02-09T22:51:08.730Z,0.10
2018-02-09T22:53:37.067Z,0.10
2018-02-09T22:56:05.458Z,0.10
2018-02-09T22:58:33.719Z,0.20
2018-02-09T23:01:03.013Z,0.10
2018-02-09T23:03:31.331Z,0.10
2018-02-09T23:05:59.620Z,0.10
2018-02-09T23:08:27.970Z,0.10
2018-02-09T23:10:56.229Z,0.10
2018-02-09T23:13:24.505Z,0.10
2018-02-09T23:15:52.803Z,0.20
2018-02-09T23:18:21.123Z,0.10
2018-02-09T23:20:50.218Z,0.20
2018-02-09T23:23:19.318Z,0.10
2018-02-09T23:25:48.355Z,0.10
2018-02-09T23:28:16.621Z,0.10
2018-02-09T23:30:45.030Z,0.00
2018-02-09T23:33:13.312Z,0.00
2018-02-09T23:35:41.580Z,0.00
2018-02-09T23:38:09.950Z,0.00
2018-02-09T23:40:38.221Z,0.00
2018-02-09T23:43:06.517Z,0.00
2018-02-09T23:45:35.258Z,0.00
2018-02-09T23:48:03.586Z,-0.10
2018-02-09T23:50:31.937Z,0.00
2018-02-09T23:53:00.241Z,-0.10
2018-02-09T23:55:28.845Z,0.00
2018-02-09T23:57:57.189Z,0.00
